createdAt,value
2023-01-27T00:00:44.356Z,102589.72
2023-01-27T00:03:13.429Z,102581.69
2023-01-27T00:05:40.323Z,102589.56
2023-01-27T00:08:06.924Z,102587.88
2023-01-27T00:10:33.544Z,102581.69
2023-01-27T00:13:18.900Z,102587.03
2023-01-27T00:15:45.663Z,102586.38
2023-01-27T00:18:12.557Z,102579.47
2023-01-27T00:20:57.517Z,102575.91
2023-01-27T00:23:44.500Z,102571.38
2023-01-27T00:26:15.991Z,102574.81
2023-01-27T00:28:43.586Z,102584.50
2023-01-27T00:31:31.400Z,102558.97
2023-01-27T00:34:02.072Z,102580.19
2023-01-27T00:36:30.010Z,102577.59
2023-01-27T00:38:57.173Z,102570.78
2023-01-27T00:41:23.971Z,102568.03
2023-01-27T00:43:53.555Z,102578.53
2023-01-27T00:46:22.197Z,102576.75
2023-01-27T00:48:49.415Z,102590.66
2023-01-27T00:51:16.704Z,102570.97
2023-01-27T00:53:43.402Z,102569.59
2023-01-27T00:56:10.234Z,102582.81
2023-01-27T00:58:37.341Z,102574.31
2023-01-27T01:01:06.745Z,102597.41
2023-01-27T01:03:35.228Z,102598.97
2023-01-27T01:06:04.979Z,102593.91
2023-01-27T01:08:32.954Z,102583.22
2023-01-27T01:10:59.428Z,102595.53
2023-01-27T01:13:30.081Z,102594.63
2023-01-27T01:15:57.256Z,102606.97
2023-01-27T01:18:24.265Z,102609.50
2023-01-27T01:20:50.844Z,102602.47
2023-01-27T01:23:17.307Z,102605.91
2023-01-27T01:25:51.890Z,102607.53
2023-01-27T01:28:18.278Z,102609.25
2023-01-27T01:30:44.801Z,102602.97
2023-01-27T01:33:11.314Z,102595.81
2023-01-27T01:35:39.923Z,102596.06
2023-01-27T01:38:06.623Z,102605.03
2023-01-27T01:40:33.321Z,102611.13
2023-01-27T01:43:04.250Z,102613.91
2023-01-27T01:45:36.844Z,102620.84
2023-01-27T01:48:04.476Z,102617.25
2023-01-27T01:50:32.142Z,102610.06
2023-01-27T01:53:00.546Z,102619.63
2023-01-27T01:55:27.681Z,102623.78
2023-01-27T01:57:54.291Z,102614.91
2023-01-27T02:00:20.694Z,102620.88
2023-01-27T02:02:49.335Z,102612.03
2023-01-27T02:05:21.921Z,102614.81
2023-01-27T02:07:59.247Z,102619.88
2023-01-27T02:10:25.778Z,102603.22
2023-01-27T02:12:52.845Z,102610.97
2023-01-27T02:15:22.112Z,102615.25
2023-01-27T02:17:49.484Z,102618.91
2023-01-27T02:20:40.675Z,102630.72
2023-01-27T02:23:41.233Z,102612.59
2023-01-27T02:26:19.775Z,102631.28
2023-01-27T02:28:51.356Z,102622.50
2023-01-27T02:31:17.865Z,102626.78
2023-01-27T02:33:44.490Z,102621.66
2023-01-27T02:36:14.630Z,102634.00
2023-01-27T02:38:46.123Z,102629.75
2023-01-27T02:41:31.157Z,102639.84
2023-01-27T02:43:57.869Z,102643.69
2023-01-27T02:46:24.304Z,102643.53
2023-01-27T02:48:50.798Z,102650.28
2023-01-27T02:51:17.324Z,102641.56
2023-01-27T02:53:43.991Z,102653.78
2023-01-27T02:56:13.432Z,102649.13
2023-01-27T02:58:39.779Z,102649.78
2023-01-27T03:01:06.421Z,102665.91
2023-01-27T03:03:33.023Z,102659.63
2023-01-27T03:05:59.594Z,102664.75
2023-01-27T03:08:26.138Z,102664.47
2023-01-27T03:10:55.608Z,102662.78
2023-01-27T03:13:23.546Z,102662.69
2023-01-27T03:16:09.016Z,102662.59
2023-01-27T03:18:35.907Z,102666.13
2023-01-27T03:21:05.887Z,102664.25
2023-01-27T03:23:34.818Z,102666.66
2023-01-27T03:26:05.543Z,102666.59
2023-01-27T03:28:35.993Z,102659.47
2023-01-27T03:31:04.833Z,102668.19
2023-01-27T03:33:31.616Z,102661.28
2023-01-27T03:36:19.125Z,102672.09
2023-01-27T03:39:03.983Z,102669.09
2023-01-27T03:41:48.835Z,102671.72
2023-01-27T03:44:34.093Z,102677.66
2023-01-27T03:47:00.619Z,102677.38
2023-01-27T03:49:27.163Z,102682.59
2023-01-27T03:51:53.620Z,102678.25
2023-01-27T03:54:20.203Z,102682.41
2023-01-27T03:56:48.015Z,102675.22
2023-01-27T03:59:15.002Z,102685.19
2023-01-27T04:01:43.696Z,102682.59
2023-01-27T04:04:29.885Z,102686.97
2023-01-27T04:06:58.813Z,102694.00
2023-01-27T04:09:28.027Z,102690.59
2023-01-27T04:11:59.941Z,102680.81
2023-01-27T04:14:38.284Z,102693.63
2023-01-27T04:17:15.613Z,102698.16
2023-01-27T04:19:42.108Z,102701.03
2023-01-27T04:22:11.263Z,102703.00
2023-01-27T04:24:38.041Z,102702.28
2023-01-27T04:27:07.911Z,102707.66
2023-01-27T04:29:40.731Z,102696.25
2023-01-27T04:32:11.695Z,102704.31
2023-01-27T04:34:39.185Z,102713.25
2023-01-27T04:37:06.839Z,102705.06
2023-01-27T04:39:34.335Z,102699.78
2023-01-27T04:42:01.274Z,102709.53
2023-01-27T04:44:27.680Z,102707.88
2023-01-27T04:46:54.705Z,102710.47
2023-01-27T04:49:21.219Z,102713.09
2023-01-27T04:51:47.726Z,102712.34
2023-01-27T04:54:14.196Z,102716.66
2023-01-27T04:56:44.412Z,102720.06
2023-01-27T04:59:13.264Z,102719.25
2023-01-27T05:01:39.872Z,102710.72
2023-01-27T05:04:06.426Z,102724.75
2023-01-27T05:06:33.149Z,102709.09
2023-01-27T05:08:59.892Z,102710.81
2023-01-27T05:11:26.247Z,102721.25
2023-01-27T05:13:53.256Z,102725.72
2023-01-27T05:16:22.191Z,102726.63
2023-01-27T05:18:50.655Z,102732.66
2023-01-27T05:21:20.471Z,102740.28
2023-01-27T05:23:47.395Z,102731.34
2023-01-27T05:26:16.919Z,102736.63
2023-01-27T05:28:45.704Z,102733.22
2023-01-27T05:31:15.742Z,102726.34
2023-01-27T05:33:42.702Z,102733.94
2023-01-27T05:36:15.379Z,102735.56
2023-01-27T05:38:42.464Z,102737.34
2023-01-27T05:41:10.537Z,102748.66
2023-01-27T05:43:39.151Z,102758.31
2023-01-27T05:46:27.317Z,102758.16
2023-01-27T05:48:56.080Z,102758.88
2023-01-27T05:51:24.861Z,102758.59
2023-01-27T05:53:51.395Z,102768.13
2023-01-27T05:56:18.966Z,102767.97
2023-01-27T05:58:45.542Z,102764.41
2023-01-27T06:01:17.205Z,102773.34
2023-01-27T06:03:44.701Z,102781.16
2023-01-27T06:06:16.035Z,102775.78
2023-01-27T06:08:42.818Z,102765.97
2023-01-27T06:11:09.746Z,102767.38
2023-01-27T06:13:38.599Z,102766.38
2023-01-27T06:16:08.088Z,102771.50
2023-01-27T06:18:35.366Z,102766.31
2023-01-27T06:21:03.886Z,102767.25
2023-01-27T06:23:30.791Z,102773.47
2023-01-27T06:26:03.095Z,102773.28
2023-01-27T06:28:30.101Z,102779.59
2023-01-27T06:31:04.273Z,102774.00
2023-01-27T06:33:30.755Z,102779.41
2023-01-27T06:36:04.756Z,102778.63
2023-01-27T06:38:31.454Z,102776.19
2023-01-27T06:40:57.960Z,102789.84
2023-01-27T06:43:24.410Z,102789.84
2023-01-27T06:45:51.620Z,102791.97
2023-01-27T06:48:18.077Z,102779.88
2023-01-27T06:50:44.792Z,102786.69
2023-01-27T06:53:11.253Z,102783.09
2023-01-27T06:55:41.835Z,102783.09
2023-01-27T06:58:09.816Z,102776.00
2023-01-27T07:00:37.312Z,102782.63
2023-01-27T07:03:04.509Z,102781.84
2023-01-27T07:05:31.526Z,102787.94
2023-01-27T07:07:58.314Z,102795.41
2023-01-27T07:10:24.966Z,102779.78
2023-01-27T07:12:51.504Z,102783.56
2023-01-27T07:15:18.050Z,102790.84
2023-01-27T07:17:44.656Z,102783.91
2023-01-27T07:20:14.467Z,102790.72
2023-01-27T07:22:41.489Z,102785.72
2023-01-27T07:25:08.394Z,102802.47
2023-01-27T07:27:34.853Z,102811.38
2023-01-27T07:30:01.401Z,102811.38
2023-01-27T07:32:28.576Z,102810.09
2023-01-27T07:34:55.175Z,102809.41
2023-01-27T07:37:22.156Z,102810.53
2023-01-27T07:39:48.766Z,102827.16
2023-01-27T07:42:15.229Z,102827.88
2023-01-27T07:44:41.677Z,102834.81
2023-01-27T07:47:08.118Z,102838.19
2023-01-27T07:49:34.578Z,102828.31
2023-01-27T07:52:01.100Z,102831.72
2023-01-27T07:54:27.517Z,102838.91
2023-01-27T07:56:53.906Z,102821.66
2023-01-27T07:59:20.400Z,102833.81
2023-01-27T08:01:48.295Z,102834.53
2023-01-27T08:04:17.051Z,102835.22
2023-01-27T08:06:43.443Z,102837.94
2023-01-27T08:09:09.922Z,102815.72
2023-01-27T08:11:36.351Z,102832.03
2023-01-27T08:14:03.529Z,102831.31
2023-01-27T08:16:30.464Z,102831.31
2023-01-27T08:18:57.080Z,102837.88
2023-01-27T08:21:25.190Z,102844.47
2023-01-27T08:23:53.679Z,102839.38
2023-01-27T08:26:20.212Z,102841.31
2023-01-27T08:28:46.868Z,102838.63
2023-01-27T08:31:15.953Z,102843.31
2023-01-27T08:33:43.998Z,102834.84
2023-01-27T08:36:14.417Z,102830.72
2023-01-27T08:38:41.890Z,102825.72
2023-01-27T08:41:12.508Z,102827.28
2023-01-27T08:43:39.279Z,102823.06
2023-01-27T08:46:06.780Z,102817.56
2023-01-27T08:48:34.426Z,102833.06
2023-01-27T08:51:02.257Z,102835.28
2023-01-27T08:53:29.379Z,102840.44
2023-01-27T08:55:57.916Z,102842.16
2023-01-27T08:58:24.743Z,102840.59
2023-01-27T09:00:51.429Z,102851.66
2023-01-27T09:03:20.849Z,102857.59
2023-01-27T09:05:47.666Z,102848.50
2023-01-27T09:08:15.999Z,102857.66
2023-01-27T09:10:43.052Z,102849.00
2023-01-27T09:13:10.625Z,102854.72
2023-01-27T09:15:38.283Z,102862.44
2023-01-27T09:18:06.559Z,102848.56
2023-01-27T09:20:34.329Z,102856.03
2023-01-27T09:23:01.206Z,102861.31
2023-01-27T09:25:28.038Z,102867.72
2023-01-27T09:27:58.737Z,102853.69
2023-01-27T09:30:26.814Z,102864.44
2023-01-27T09:32:53.800Z,102866.09
2023-01-27T09:35:20.188Z,102867.50
2023-01-27T09:37:58.614Z,102868.78
2023-01-27T09:40:54.378Z,102867.38
2023-01-27T09:43:42.391Z,102855.00
2023-01-27T09:46:46.776Z,102857.66
2023-01-27T09:50:00.993Z,102854.50
2023-01-27T09:52:46.770Z,102849.31
2023-01-27T09:55:30.536Z,102848.16
2023-01-27T09:57:59.694Z,102846.97
2023-01-27T10:01:00.211Z,102844.78
2023-01-27T10:03:43.796Z,102858.13
2023-01-27T10:06:21.620Z,102861.72
2023-01-27T10:08:50.920Z,102858.50
2023-01-27T10:11:42.377Z,102854.22
2023-01-27T10:14:26.863Z,102860.69
2023-01-27T10:17:07.746Z,102857.47
2023-01-27T10:19:54.594Z,102866.72
2023-01-27T10:22:58.775Z,102858.16
2023-01-27T10:25:31.259Z,102859.19
2023-01-27T10:28:00.871Z,102855.38
2023-01-27T10:30:36.946Z,102875.53
2023-01-27T10:33:18.308Z,102872.84
2023-01-27T10:35:58.838Z,102884.75
2023-01-27T10:38:48.017Z,102878.66
2023-01-27T10:41:48.945Z,102875.88
2023-01-27T10:44:49.407Z,102878.56
2023-01-27T10:47:26.903Z,102879.63
2023-01-27T10:50:01.753Z,102884.25
2023-01-27T10:52:40.156Z,102882.94
2023-01-27T10:55:36.459Z,102889.41
2023-01-27T10:58:20.665Z,102885.63
2023-01-27T11:01:23.141Z,102885.53
2023-01-27T11:03:50.334Z,102888.34
2023-01-27T11:06:23.850Z,102889.34
2023-01-27T11:08:56.056Z,102884.75
2023-01-27T11:11:43.884Z,102886.91
2023-01-27T11:14:22.731Z,102884.63
2023-01-27T11:16:58.198Z,102880.06
2023-01-27T11:19:54.467Z,102890.47
2023-01-27T11:22:24.048Z,102879.16
2023-01-27T11:25:05.749Z,102890.06
2023-01-27T11:27:53.693Z,102878.88
2023-01-27T11:30:27.409Z,102883.22
2023-01-27T11:33:10.390Z,102882.03
2023-01-27T11:35:37.692Z,102861.72
2023-01-27T11:38:15.015Z,102878.13
2023-01-27T11:40:43.817Z,102873.56
2023-01-27T11:43:20.441Z,102873.28
2023-01-27T11:45:49.663Z,102864.66
2023-01-27T11:48:18.936Z,102859.94
2023-01-27T11:50:46.379Z,102864.97
2023-01-27T11:53:38.500Z,102866.00
2023-01-27T11:56:10.488Z,102860.47
2023-01-27T11:58:45.028Z,102858.84
2023-01-27T12:01:18.719Z,102850.16
2023-01-27T12:03:56.898Z,102850.41
2023-01-27T12:06:38.237Z,102848.81
2023-01-27T12:09:30.397Z,102854.34
2023-01-27T12:12:15.342Z,102843.84
2023-01-27T12:14:47.753Z,102837.88
2023-01-27T12:17:24.589Z,102840.50
2023-01-27T12:19:53.573Z,102836.91
2023-01-27T12:22:44.085Z,102835.63
2023-01-27T12:25:23.071Z,102831.75
2023-01-27T12:27:59.753Z,102838.56
2023-01-27T12:30:29.758Z,102827.84
2023-01-27T12:32:58.805Z,102839.41
2023-01-27T12:35:35.928Z,102835.94
2023-01-27T12:38:07.358Z,102827.94
2023-01-27T12:40:34.549Z,102821.72
2023-01-27T12:43:21.482Z,102828.25
2023-01-27T12:46:21.851Z,102824.63
2023-01-27T12:48:51.536Z,102825.22
2023-01-27T12:51:24.394Z,102826.97
2023-01-27T12:54:11.208Z,102823.31
2023-01-27T12:56:38.583Z,102828.28
2023-01-27T12:59:05.084Z,102824.63
2023-01-27T13:01:34.685Z,102822.75
2023-01-27T13:04:10.396Z,102818.31
2023-01-27T13:06:44.070Z,102822.38
2023-01-27T13:09:30.720Z,102814.41
2023-01-27T13:12:00.008Z,102814.91
2023-01-27T13:14:39.836Z,102819.19
2023-01-27T13:17:26.125Z,102820.97
2023-01-27T13:19:55.275Z,102816.50
2023-01-27T13:22:23.168Z,102821.66
2023-01-27T13:24:54.613Z,102830.16
2023-01-27T13:27:22.918Z,102821.31
2023-01-27T13:30:05.746Z,102834.56
2023-01-27T13:32:34.976Z,102829.03
2023-01-27T13:35:24.418Z,102830.66
2023-01-27T13:38:34.196Z,102831.41
2023-01-27T13:41:14.297Z,102832.06
2023-01-27T13:43:48.206Z,102827.47
2023-01-27T13:46:39.448Z,102835.06
2023-01-27T13:49:26.512Z,102832.72
2023-01-27T13:51:52.948Z,102835.72
2023-01-27T13:54:19.422Z,102837.34
2023-01-27T13:56:49.093Z,102843.88
2023-01-27T13:59:33.648Z,102838.38
2023-01-27T14:02:39.307Z,102841.09
2023-01-27T14:05:20.516Z,102848.75
2023-01-27T14:08:32.062Z,102848.56
2023-01-27T14:11:11.321Z,102846.78
2023-01-27T14:14:02.183Z,102851.84
2023-01-27T14:17:12.020Z,102849.78
2023-01-27T14:19:57.150Z,102861.94
2023-01-27T14:22:40.173Z,102859.53
2023-01-27T14:25:12.502Z,102859.44
2023-01-27T14:27:38.860Z,102865.59
2023-01-27T14:30:21.631Z,102868.66
2023-01-27T14:32:57.025Z,102874.59
2023-01-27T14:35:53.203Z,102872.72
2023-01-27T14:38:20.046Z,102868.03
2023-01-27T14:41:10.395Z,102862.28
2023-01-27T14:43:42.217Z,102867.59
2023-01-27T14:46:37.936Z,102856.59
2023-01-27T14:49:14.498Z,102862.53
2023-01-27T14:51:54.579Z,102865.06
2023-01-27T14:54:49.764Z,102872.81
2023-01-27T14:57:43.354Z,102873.72
2023-01-27T15:00:44.233Z,102876.88
2023-01-27T15:03:44.391Z,102877.22
2023-01-27T15:06:21.698Z,102878.09
2023-01-27T15:08:57.312Z,102873.09
2023-01-27T15:12:12.238Z,102877.38
2023-01-27T15:15:05.540Z,102875.44
2023-01-27T15:18:01.298Z,102886.88
2023-01-27T15:20:54.147Z,102891.81
2023-01-27T15:23:28.042Z,102892.06
2023-01-27T15:26:09.135Z,102889.47
2023-01-27T15:28:41.839Z,102895.84
2023-01-27T15:31:16.946Z,102889.63
2023-01-27T15:33:53.321Z,102891.53
2023-01-27T15:36:57.240Z,102894.13
2023-01-27T15:39:39.662Z,102894.13
2023-01-27T15:42:13.937Z,102893.25
2023-01-27T15:45:04.126Z,102883.81
2023-01-27T15:47:36.214Z,102890.91
2023-01-27T15:50:06.185Z,102894.31
2023-01-27T15:52:42.941Z,102901.19
2023-01-27T15:55:31.823Z,102894.06
2023-01-27T15:58:42.266Z,102885.31
2023-01-27T16:01:17.446Z,102899.38
2023-01-27T16:03:53.233Z,102896.84
2023-01-27T16:06:27.304Z,102894.41
2023-01-27T16:09:20.107Z,102895.78
2023-01-27T16:12:07.391Z,102902.72
2023-01-27T16:15:17.284Z,102846.91
2023-01-27T16:18:22.539Z,102915.75
2023-01-27T16:21:38.781Z,102912.03
2023-01-27T16:24:24.773Z,102919.78
2023-01-27T16:27:07.062Z,102907.47
2023-01-27T16:29:42.832Z,102917.44
2023-01-27T16:32:29.277Z,102913.16
2023-01-27T16:35:13.495Z,102921.03
2023-01-27T16:38:05.051Z,102851.53
2023-01-27T16:40:34.665Z,102920.28
2023-01-27T16:43:28.033Z,102922.00
2023-01-27T16:45:59.486Z,102921.03
2023-01-27T16:48:35.870Z,102934.34
2023-01-27T16:51:18.191Z,102938.94
2023-01-27T16:53:48.852Z,102906.59
2023-01-27T16:56:41.136Z,102944.53
2023-01-27T16:59:23.415Z,102883.41
2023-01-27T17:01:55.191Z,102937.78
2023-01-27T17:04:42.412Z,102943.63
2023-01-27T17:07:16.225Z,102948.97
2023-01-27T17:09:53.866Z,102936.94
2023-01-27T17:12:36.929Z,102956.56
2023-01-27T17:15:34.969Z,102942.34
2023-01-27T17:18:06.377Z,102947.31
2023-01-27T17:20:47.508Z,102957.09
2023-01-27T17:23:32.760Z,102964.41
2023-01-27T17:26:12.841Z,102954.50
2023-01-27T17:28:44.356Z,102946.31
2023-01-27T17:31:28.083Z,102967.84
2023-01-27T17:34:09.587Z,102968.06
2023-01-27T17:37:17.989Z,102965.81
2023-01-27T17:39:53.711Z,102965.34
2023-01-27T17:42:22.134Z,102937.91
2023-01-27T17:44:55.432Z,102990.91
2023-01-27T17:47:28.661Z,102979.94
2023-01-27T17:52:51.775Z,102978.59
2023-01-27T17:55:27.303Z,102951.38
2023-01-27T17:58:06.327Z,102980.38
2023-01-27T18:00:38.846Z,102993.31
2023-01-27T18:03:18.124Z,102993.22
2023-01-27T18:05:49.383Z,102985.38
2023-01-27T18:08:19.664Z,102990.78
2023-01-27T18:10:47.348Z,102990.00
2023-01-27T18:13:22.574Z,103003.34
2023-01-27T18:16:02.753Z,103012.97
2023-01-27T18:18:36.242Z,103000.50
2023-01-27T18:21:27.382Z,103011.16
2023-01-27T18:23:57.655Z,103003.13
2023-01-27T18:26:34.358Z,103004.84
2023-01-27T18:29:01.286Z,103016.88
2023-01-27T18:31:37.161Z,103015.97
2023-01-27T18:34:10.074Z,103013.47
2023-01-27T18:37:01.237Z,103010.41
2023-01-27T18:39:42.074Z,103020.13
2023-01-27T18:42:23.567Z,103023.72
2023-01-27T18:44:57.424Z,103025.34
2023-01-27T18:47:35.367Z,103037.47
2023-01-27T18:50:12.836Z,103040.09
2023-01-27T18:52:40.500Z,103031.25
2023-01-27T18:55:24.892Z,103036.59
2023-01-27T18:57:57.496Z,103031.38
2023-01-27T19:00:41.161Z,103033.25
2023-01-27T19:03:15.078Z,103033.25
2023-01-27T19:05:46.378Z,103037.56
2023-01-27T19:08:26.375Z,103032.34
2023-01-27T19:11:07.515Z,103038.06
2023-01-27T19:13:35.292Z,103025.94
2023-01-27T19:16:02.686Z,103051.72
2023-01-27T19:18:36.211Z,103041.56
2023-01-27T19:21:03.519Z,103036.69
2023-01-27T19:23:30.784Z,103042.78
2023-01-27T19:25:59.721Z,103044.41
2023-01-27T19:28:30.803Z,103042.59
2023-01-27T19:30:58.235Z,103042.22
2023-01-27T19:33:26.422Z,103049.03
2023-01-27T19:36:00.140Z,103039.50
2023-01-27T19:38:28.761Z,103038.81
2023-01-27T19:40:55.730Z,103035.41
2023-01-27T19:43:22.536Z,103043.44
2023-01-27T19:45:49.960Z,103041.00
2023-01-27T19:48:21.547Z,103041.09
2023-01-27T19:50:48.675Z,103052.63
2023-01-27T19:53:16.575Z,103041.91
2023-01-27T19:55:43.328Z,103051.44
2023-01-27T19:58:23.020Z,103052.22
2023-01-27T20:00:49.592Z,103051.25
2023-01-27T20:03:16.567Z,103045.63
2023-01-27T20:05:43.585Z,103042.22
2023-01-27T20:08:18.352Z,103048.34
2023-01-27T20:10:45.399Z,103044.84
2023-01-27T20:13:17.522Z,103042.41
2023-01-27T20:15:45.051Z,103054.75
2023-01-27T20:18:15.043Z,103047.00
2023-01-27T20:20:41.553Z,103052.97
2023-01-27T20:23:10.980Z,103050.03
2023-01-27T20:25:38.826Z,103043.44
2023-01-27T20:28:05.660Z,103052.94
2023-01-27T20:30:34.028Z,103047.72
2023-01-27T20:33:03.384Z,103039.72
2023-01-27T20:35:30.822Z,103035.44
2023-01-27T20:37:57.619Z,103034.63
2023-01-27T20:40:27.366Z,103040.03
2023-01-27T20:42:53.809Z,103042.75
2023-01-27T20:45:21.621Z,103038.41
2023-01-27T20:47:50.355Z,103035.88
2023-01-27T20:50:18.100Z,103039.44
2023-01-27T20:52:44.928Z,103045.63
2023-01-27T20:55:14.079Z,103041.22
2023-01-27T20:57:40.972Z,103030.59
2023-01-27T21:00:10.645Z,103039.19
2023-01-27T21:02:37.155Z,103036.50
2023-01-27T21:05:03.819Z,103039.91
2023-01-27T21:07:30.232Z,103035.50
2023-01-27T21:09:56.714Z,103033.59
2023-01-27T21:12:23.148Z,103036.41
2023-01-27T21:14:50.110Z,103034.69
2023-01-27T21:17:17.337Z,103037.22
2023-01-27T21:19:43.918Z,103041.63
2023-01-27T21:22:10.313Z,103043.44
2023-01-27T21:24:37.081Z,103041.63
2023-01-27T21:27:05.578Z,103032.09
2023-01-27T21:29:32.103Z,103038.22
2023-01-27T21:31:58.766Z,103033.81
2023-01-27T21:34:26.254Z,103031.38
2023-01-27T21:36:54.832Z,103029.00
2023-01-27T21:39:22.332Z,103024.50
2023-01-27T21:41:54.495Z,103027.09
2023-01-27T21:44:48.986Z,103012.88
2023-01-27T21:47:18.145Z,103009.56
2023-01-27T21:50:01.257Z,103013.84
2023-01-27T21:52:40.685Z,103014.66
2023-01-27T21:55:13.982Z,103017.97
2023-01-27T21:57:41.721Z,103014.16
2023-01-27T22:00:10.796Z,103010.66
2023-01-27T22:02:37.704Z,103012.44
2023-01-27T22:05:04.830Z,103010.66
2023-01-27T22:07:34.323Z,103014.16
2023-01-27T22:10:00.661Z,103015.75
2023-01-27T22:12:27.166Z,103016.88
2023-01-27T22:14:53.677Z,103014.28
2023-01-27T22:17:20.191Z,103021.28
2023-01-27T22:19:46.928Z,103014.97
2023-01-27T22:22:13.762Z,103013.38
2023-01-27T22:24:40.644Z,103017.88
2023-01-27T22:27:07.167Z,103016.19
2023-01-27T22:29:33.680Z,103014.34
2023-01-27T22:32:00.239Z,103001.31
2023-01-27T22:34:27.001Z,103001.31
2023-01-27T22:36:53.606Z,103004.75
2023-01-27T22:39:20.110Z,102988.28
2023-01-27T22:41:46.768Z,102990.91
2023-01-27T22:44:14.345Z,102995.22
2023-01-27T22:46:42.685Z,102993.44
2023-01-27T22:49:10.542Z,102992.31
2023-01-27T22:51:37.549Z,102993.44
2023-01-27T22:54:04.299Z,102997.75
2023-01-27T22:56:31.189Z,103000.94
2023-01-27T22:58:57.873Z,102992.75
2023-01-27T23:01:24.385Z,102998.03
2023-01-27T23:03:51.038Z,103000.56
2023-01-27T23:06:17.556Z,103007.47
2023-01-27T23:08:44.223Z,103013.59
2023-01-27T23:11:11.895Z,103014.38
2023-01-27T23:13:38.474Z,103021.22
2023-01-27T23:16:05.437Z,103007.38
2023-01-27T23:18:32.710Z,103010.78
2023-01-27T23:21:07.610Z,103009.06
2023-01-27T23:23:37.357Z,103008.19
2023-01-27T23:26:08.463Z,103010.88
2023-01-27T23:28:37.678Z,103011.75
2023-01-27T23:31:07.313Z,103011.97
2023-01-27T23:33:35.680Z,103006.66
2023-01-27T23:36:02.287Z,102996.31
2023-01-27T23:38:32.897Z,103001.53
2023-01-27T23:41:02.435Z,102999.75
2023-01-27T23:43:31.086Z,102995.34
2023-01-27T23:45:57.923Z,103005.97
2023-01-27T23:48:24.800Z,103012.78
2023-01-27T23:50:51.315Z,103001.44
2023-01-27T23:53:17.882Z,103005.06
2023-01-27T23:55:44.529Z,103003.16
2023-01-27T23:58:11.016Z,103010.97
